sensor_id;sensor_type;location;lat;lon;timestamp;pressure;altitude;pressure_sealevel;temperature;humidity
19128;BME280;9696;53.686;10.094;2023-05-07T00:00:11;102018.47;;;8.86;100.00
19128;BME280;9696;53.686;10.094;2023-05-07T00:02:43;102023.59;;;8.74;100.00
19128;BME280;9696;53.686;10.094;2023-05-07T00:05:13;102024.75;;;8.84;100.00
19128;BME280;9696;53.686;10.094;2023-05-07T00:07:42;102032.38;;;8.73;100.00
19128;BME280;9696;53.686;10.094;2023-05-07T00:10:11;102023.50;;;8.75;100.00
19128;BME280;9696;53.686;10.094;2023-05-07T00:12:41;102020.88;;;8.75;100.00
19128;BME280;9696;53.686;10.094;2023-05-07T00:15:12;102024.16;;;8.79;100.00
19128;BME280;9696;53.686;10.094;2023-05-07T00:17:41;102021.63;;;8.77;100.00
19128;BME280;9696;53.686;10.094;2023-05-07T00:20:11;102014.53;;;8.79;100.00
19128;BME280;9696;53.686;10.094;2023-05-07T00:22:40;102010.34;;;8.77;100.00
19128;BME280;9696;53.686;10.094;2023-05-07T00:25:09;102014.47;;;8.81;100.00
19128;BME280;9696;53.686;10.094;2023-05-07T00:27:39;102010.28;;;8.92;100.00
19128;BME280;9696;53.686;10.094;2023-05-07T00:30:09;102016.13;;;8.82;100.00
19128;BME280;9696;53.686;10.094;2023-05-07T00:32:40;102014.34;;;8.82;100.00
19128;BME280;9696;53.686;10.094;2023-05-07T00:35:09;102013.69;;;8.79;100.00
19128;BME280;9696;53.686;10.094;2023-05-07T00:37:39;102019.78;;;8.79;100.00
19128;BME280;9696;53.686;10.094;2023-05-07T00:40:08;102019.00;;;8.77;100.00
19128;BME280;9696;53.686;10.094;2023-05-07T00:42:38;102009.03;;;8.84;100.00
19128;BME280;9696;53.686;10.094;2023-05-07T00:45:08;102012.84;;;8.78;100.00
19128;BME280;9696;53.686;10.094;2023-05-07T00:47:40;102005.28;;;8.74;100.00
19128;BME280;9696;53.686;10.094;2023-05-07T00:50:09;102005.28;;;8.74;100.00
19128;BME280;9696;53.686;10.094;2023-05-07T00:52:40;102010.41;;;8.75;100.00
19128;BME280;9696;53.686;10.094;2023-05-07T00:55:10;102010.50;;;8.74;100.00
19128;BME280;9696;53.686;10.094;2023-05-07T00:57:41;102005.19;;;8.75;100.00
19128;BME280;9696;53.686;10.094;2023-05-07T01:00:11;102008.84;;;8.73;100.00
19128;BME280;9696;53.686;10.094;2023-05-07T01:02:43;102010.69;;;8.71;100.00
19128;BME280;9696;53.686;10.094;2023-05-07T01:05:15;102009.94;;;8.69;100.00
19128;BME280;9696;53.686;10.094;2023-05-07T01:07:46;102013.69;;;8.79;100.00
19128;BME280;9696;53.686;10.094;2023-05-07T01:10:16;102008.25;;;8.68;100.00
19128;BME280;9696;53.686;10.094;2023-05-07T01:12:47;102007.44;;;8.81;100.00
19128;BME280;9696;53.686;10.094;2023-05-07T01:15:17;102008.84;;;8.73;100.00
19128;BME280;9696;53.686;10.094;2023-05-07T01:17:48;102008.91;;;8.71;100.00
19128;BME280;9696;53.686;10.094;2023-05-07T01:20:28;102011.28;;;8.76;100.00
19128;BME280;9696;53.686;10.094;2023-05-07T01:22:59;102011.72;;;8.68;100.00
19128;BME280;9696;53.686;10.094;2023-05-07T01:25:29;102009.94;;;8.69;100.00
19128;BME280;9696;53.686;10.094;2023-05-07T01:28:01;102011.13;;;8.63;100.00
19128;BME280;9696;53.686;10.094;2023-05-07T01:30:35;102010.22;;;8.64;100.00
19128;BME280;9696;53.686;10.094;2023-05-07T01:33:10;102010.94;;;8.66;100.00
19128;BME280;9696;53.686;10.094;2023-05-07T01:35:43;102010.53;;;8.58;100.00
19128;BME280;9696;53.686;10.094;2023-05-07T01:38:15;102010.03;;;8.67;100.00
19128;BME280;9696;53.686;10.094;2023-05-07T01:40:45;102011.97;;;8.64;100.00
19128;BME280;9696;53.686;10.094;2023-05-07T01:43:14;102011.22;;;8.62;100.00
19128;BME280;9696;53.686;10.094;2023-05-07T01:45:44;102013.34;;;8.55;100.00
19128;BME280;9696;53.686;10.094;2023-05-07T01:48:14;102005.69;;;8.52;100.00
19128;BME280;9696;53.686;10.094;2023-05-07T01:50:44;102003.47;;;8.60;100.00
19128;BME280;9696;53.686;10.094;2023-05-07T01:53:15;102005.31;;;8.58;100.00
19128;BME280;9696;53.686;10.094;2023-05-07T01:55:44;102008.47;;;8.49;100.00
19128;BME280;9696;53.686;10.094;2023-05-07T01:58:13;102002.69;;;8.58;100.00
19128;BME280;9696;53.686;10.094;2023-05-07T02:00:42;102009.25;;;8.65;100.00
19128;BME280;9696;53.686;10.094;2023-05-07T02:03:12;101995.13;;;8.53;100.00
19128;BME280;9696;53.686;10.094;2023-05-07T02:05:52;102000.00;;;8.60;100.00
19128;BME280;9696;53.686;10.094;2023-05-07T02:08:30;102009.00;;;8.70;100.00
19128;BME280;9696;53.686;10.094;2023-05-07T02:11:00;102015.28;;;8.51;100.00
19128;BME280;9696;53.686;10.094;2023-05-07T02:13:33;102017.84;;;8.53;100.00
19128;BME280;9696;53.686;10.094;2023-05-07T02:16:04;102027.44;;;8.52;100.00
19128;BME280;9696;53.686;10.094;2023-05-07T02:18:33;102023.53;;;8.60;100.00
19128;BME280;9696;53.686;10.094;2023-05-07T02:21:03;102022.50;;;8.62;100.00
19128;BME280;9696;53.686;10.094;2023-05-07T02:23:34;102014.66;;;8.62;100.00
19128;BME280;9696;53.686;10.094;2023-05-07T02:26:04;102018.75;;;8.52;100.00
19128;BME280;9696;53.686;10.094;2023-05-07T02:28:33;102017.66;;;8.56;100.00
19128;BME280;9696;53.686;10.094;2023-05-07T02:31:05;102026.69;;;8.50;100.00
19128;BME280;9696;53.686;10.094;2023-05-07T02:33:35;102030.72;;;8.56;100.00
19128;BME280;9696;53.686;10.094;2023-05-07T02:36:08;102031.97;;;8.65;100.00
19128;BME280;9696;53.686;10.094;2023-05-07T02:38:44;102033.56;;;8.67;100.00
19128;BME280;9696;53.686;10.094;2023-05-07T02:41:14;102032.91;;;8.64;100.00
19128;BME280;9696;53.686;10.094;2023-05-07T02:43:43;102028.69;;;8.61;100.00
19128;BME280;9696;53.686;10.094;2023-05-07T02:46:12;102027.19;;;8.57;100.00
19128;BME280;9696;53.686;10.094;2023-05-07T02:48:46;102037.47;;;8.60;100.00
19128;BME280;9696;53.686;10.094;2023-05-07T02:51:17;102038.13;;;8.64;100.00
19128;BME280;9696;53.686;10.094;2023-05-07T02:53:48;102047.59;;;8.50;100.00
19128;BME280;9696;53.686;10.094;2023-05-07T02:56:17;102044.81;;;8.53;100.00
19128;BME280;9696;53.686;10.094;2023-05-07T02:58:46;102049.34;;;8.66;100.00
19128;BME280;9696;53.686;10.094;2023-05-07T03:01:16;102048.19;;;8.56;100.00
19128;BME280;9696;53.686;10.094;2023-05-07T03:03:58;102047.72;;;8.49;100.00
19128;BME280;9696;53.686;10.094;2023-05-07T03:06:27;102041.78;;;8.61;100.00
19128;BME280;9696;53.686;10.094;2023-05-07T03:08:58;102039.09;;;8.47;100.00
19128;BME280;9696;53.686;10.094;2023-05-07T03:11:27;102036.41;;;8.48;100.00
19128;BME280;9696;53.686;10.094;2023-05-07T03:13:56;102039.09;;;8.47;100.00
19128;BME280;9696;53.686;10.094;2023-05-07T03:16:26;102046.94;;;8.47;100.00
19128;BME280;9696;53.686;10.094;2023-05-07T03:18:55;102034.53;;;8.50;100.00
19128;BME280;9696;53.686;10.094;2023-05-07T03:21:24;102037.81;;;8.54;100.00
19128;BME280;9696;53.686;10.094;2023-05-07T03:23:54;102031.91;;;8.50;100.00
19128;BME280;9696;53.686;10.094;2023-05-07T03:26:25;102037.81;;;8.54;100.00
19128;BME280;9696;53.686;10.094;2023-05-07T03:28:54;102038.16;;;8.48;100.00
19128;BME280;9696;53.686;10.094;2023-05-07T03:31:24;102041.38;;;8.53;100.00
19128;BME280;9696;53.686;10.094;2023-05-07T03:33:54;102043.63;;;8.59;100.00
19128;BME280;9696;53.686;10.094;2023-05-07T03:36:24;102044.00;;;8.53;100.00
19128;BME280;9696;53.686;10.094;2023-05-07T03:38:55;102046.75;;;8.50;100.00
19128;BME280;9696;53.686;10.094;2023-05-07T03:41:28;102041.25;;;8.55;100.00
19128;BME280;9696;53.686;10.094;2023-05-07T03:43:58;102050.03;;;8.53;100.00
19128;BME280;9696;53.686;10.094;2023-05-07T03:46:27;102044.72;;;8.55;100.00
19128;BME280;9696;53.686;10.094;2023-05-07T03:48:56;102036.97;;;8.53;100.00
19128;BME280;9696;53.686;10.094;2023-05-07T03:51:26;102036.19;;;8.67;100.00
19128;BME280;9696;53.686;10.094;2023-05-07T03:53:55;102036.97;;;8.53;100.00
19128;BME280;9696;53.686;10.094;2023-05-07T03:56:27;102030.72;;;8.56;100.00
19128;BME280;9696;53.686;10.094;2023-05-07T03:58:58;102036.81;;;8.57;100.00
19128;BME280;9696;53.686;10.094;2023-05-07T04:01:27;102046.91;;;8.63;100.00
19128;BME280;9696;53.686;10.094;2023-05-07T04:03:57;102046.56;;;8.69;100.00
19128;BME280;9696;53.686;10.094;2023-05-07T04:06:27;102049.34;;;8.66;100.00
19128;BME280;9696;53.686;10.094;2023-05-07T04:08:56;102047.69;;;8.65;100.00
19128;BME280;9696;53.686;10.094;2023-05-07T04:11:26;102055.59;;;8.63;100.00
19128;BME280;9696;53.686;10.094;2023-05-07T04:13:57;102056.34;;;8.65;100.00
19128;BME280;9696;53.686;10.094;2023-05-07T04:16:26;102055.94;;;8.73;100.00
19128;BME280;9696;53.686;10.094;2023-05-07T04:18:55;102058.81;;;8.68;100.00
19128;BME280;9696;53.686;10.094;2023-05-07T04:21:24;102063.25;;;8.66;100.00
19128;BME280;9696;53.686;10.094;2023-05-07T04:23:55;102056.34;;;8.65;100.00
19128;BME280;9696;53.686;10.094;2023-05-07T04:26:25;102066.13;;;8.62;100.00
19128;BME280;9696;53.686;10.094;2023-05-07T04:28:55;102054.97;;;8.74;100.00
19128;BME280;9696;53.686;10.094;2023-05-07T04:31:25;102053.97;;;8.76;100.00
19128;BME280;9696;53.686;10.094;2023-05-07T04:33:55;102056.84;;;8.72;100.00
19128;BME280;9696;53.686;10.094;2023-05-07T04:36:25;102061.50;;;8.67;100.00
19128;BME280;9696;53.686;10.094;2023-05-07T04:39:00;102055.16;;;8.71;100.00
19128;BME280;9696;53.686;10.094;2023-05-07T04:41:29;102063.25;;;8.66;100.00
19128;BME280;9696;53.686;10.094;2023-05-07T04:44:00;102067.38;;;8.70;100.00
19128;BME280;9696;53.686;10.094;2023-05-07T04:46:31;102068.06;;;8.74;100.00
19128;BME280;9696;53.686;10.094;2023-05-07T04:49:00;102054.72;;;8.78;100.00
19128;BME280;9696;53.686;10.094;2023-05-07T04:51:29;102068.31;;;8.69;100.00
19128;BME280;9696;53.686;10.094;2023-05-07T04:54:00;102063.34;;;8.80;100.00
19128;BME280;9696;53.686;10.094;2023-05-07T04:56:31;102070.78;;;8.72;100.00
19128;BME280;9696;53.686;10.094;2023-05-07T04:59:02;102068.81;;;8.76;100.00
19128;BME280;9696;53.686;10.094;2023-05-07T05:01:31;102062.56;;;8.78;100.00
19128;BME280;9696;53.686;10.094;2023-05-07T05:04:01;102062.56;;;8.78;100.00
19128;BME280;9696;53.686;10.094;2023-05-07T05:06:30;102078.19;;;8.80;100.00
19128;BME280;9696;53.686;10.094;2023-05-07T05:09:01;102082.56;;;8.79;100.00
19128;BME280;9696;53.686;10.094;2023-05-07T05:11:33;102074.34;;;8.85;100.00
19128;BME280;9696;53.686;10.094;2023-05-07T05:14:04;102077.47;;;8.92;100.00
19128;BME280;9696;53.686;10.094;2023-05-07T05:16:33;102078.81;;;8.99;100.00
19128;BME280;9696;53.686;10.094;2023-05-07T05:19:03;102077.03;;;8.99;100.00
19128;BME280;9696;53.686;10.094;2023-05-07T05:21:35;102074.28;;;8.87;100.00
19128;BME280;9696;53.686;10.094;2023-05-07T05:24:08;102072.91;;;8.95;100.00
19128;BME280;9696;53.686;10.094;2023-05-07T05:26:37;102085.53;;;9.03;100.00
19128;BME280;9696;53.686;10.094;2023-05-07T05:29:08;102080.22;;;9.05;100.00
19128;BME280;9696;53.686;10.094;2023-05-07T05:31:40;102084.09;;;8.97;100.00
19128;BME280;9696;53.686;10.094;2023-05-07T05:34:11;102083.50;;;9.08;100.00
19128;BME280;9696;53.686;10.094;2023-05-07T05:36:40;102085.47;;;9.05;100.00
19128;BME280;9696;53.686;10.094;2023-05-07T05:39:10;102083.50;;;9.08;100.00
19128;BME280;9696;53.686;10.094;2023-05-07T05:41:39;102080.03;;;9.08;100.00
19128;BME280;9696;53.686;10.094;2023-05-07T05:44:10;102089.28;;;8.99;100.00
19128;BME280;9696;53.686;10.094;2023-05-07T05:46:40;102075.66;;;9.08;100.00
19128;BME280;9696;53.686;10.094;2023-05-07T05:49:10;102086.19;;;9.07;100.00
19128;BME280;9696;53.686;10.094;2023-05-07T05:51:40;102080.69;;;9.11;100.00
19128;BME280;9696;53.686;10.094;2023-05-07T05:54:09;102096.09;;;9.02;100.00
19128;BME280;9696;53.686;10.094;2023-05-07T05:56:38;102094.97;;;9.06;100.00
19128;BME280;9696;53.686;10.094;2023-05-07T05:59:09;102097.25;;;9.12;100.00
19128;BME280;9696;53.686;10.094;2023-05-07T06:01:39;102097.19;;;9.27;100.00
19128;BME280;9696;53.686;10.094;2023-05-07T06:04:08;102102.22;;;9.16;100.00
19128;BME280;9696;53.686;10.094;2023-05-07T06:06:37;102095.50;;;9.40;100.00
19128;BME280;9696;53.686;10.094;2023-05-07T06:09:07;102086.91;;;9.38;100.00
19128;BME280;9696;53.686;10.094;2023-05-07T06:11:41;102088.22;;;9.45;100.00
19128;BME280;9696;53.686;10.094;2023-05-07T06:14:12;102096.81;;;9.33;100.00
19128;BME280;9696;53.686;10.094;2023-05-07T06:16:42;102090.56;;;9.36;100.00
19128;BME280;9696;53.686;10.094;2023-05-07T06:19:11;102099.09;;;9.54;100.00
19128;BME280;9696;53.686;10.094;2023-05-07T06:21:41;102091.03;;;9.57;100.00
19128;BME280;9696;53.686;10.094;2023-05-07T06:24:10;102093.38;;;9.61;100.00
19128;BME280;9696;53.686;10.094;2023-05-07T06:26:40;102092.81;;;9.56;100.00
19128;BME280;9696;53.686;10.094;2023-05-07T06:29:09;102100.13;;;9.65;100.00
19128;BME280;9696;53.686;10.094;2023-05-07T06:31:42;102088.53;;;9.69;100.00
19128;BME280;9696;53.686;10.094;2023-05-07T06:34:12;102095.81;;;9.50;100.00
19128;BME280;9696;53.686;10.094;2023-05-07T06:36:43;102107.78;;;9.54;100.00
19128;BME280;9696;53.686;10.094;2023-05-07T06:39:22;102099.84;;;9.70;100.00
19128;BME280;9696;53.686;10.094;2023-05-07T06:41:52;102091.72;;;9.74;100.00
19128;BME280;9696;53.686;10.094;2023-05-07T06:44:28;102092.84;;;9.70;100.00
19128;BME280;9696;53.686;10.094;2023-05-07T06:47:18;102105.38;;;9.93;100.00
19128;BME280;9696;53.686;10.094;2023-05-07T06:49:51;102102.94;;;9.90;100.00
19128;BME280;9696;53.686;10.094;2023-05-07T06:52:24;102086.19;;;10.07;100.00
19128;BME280;9696;53.686;10.094;2023-05-07T06:54:55;102094.31;;;9.88;100.00
19128;BME280;9696;53.686;10.094;2023-05-07T06:57:26;102085.44;;;9.77;100.00
19128;BME280;9696;53.686;10.094;2023-05-07T06:59:55;102097.69;;;9.90;100.00
19128;BME280;9696;53.686;10.094;2023-05-07T07:02:25;102094.97;;;9.92;100.00
19128;BME280;9696;53.686;10.094;2023-05-07T07:04:55;102096.56;;;10.09;100.00
19128;BME280;9696;53.686;10.094;2023-05-07T07:07:24;102105.75;;;10.16;100.00
19128;BME280;9696;53.686;10.094;2023-05-07T07:09:54;102096.88;;;10.18;100.00
19128;BME280;9696;53.686;10.094;2023-05-07T07:12:23;102089.94;;;10.17;100.00
19128;BME280;9696;53.686;10.094;2023-05-07T07:14:53;102098.03;;;10.13;100.00
19128;BME280;9696;53.686;10.094;2023-05-07T07:17:24;102096.25;;;10.13;100.00
19128;BME280;9696;53.686;10.094;2023-05-07T07:19:55;102096.84;;;10.04;100.00
19128;BME280;9696;53.686;10.094;2023-05-07T07:22:24;102093.19;;;10.21;100.00
19128;BME280;9696;53.686;10.094;2023-05-07T07:24:54;102102.00;;;10.06;100.00
19128;BME280;9696;53.686;10.094;2023-05-07T07:27:24;102107.59;;;10.00;100.00
19128;BME280;9696;53.686;10.094;2023-05-07T07:29:53;102094.69;;;10.25;100.00
19128;BME280;9696;53.686;10.094;2023-05-07T07:32:22;102096.94;;;10.03;100.00
19128;BME280;9696;53.686;10.094;2023-05-07T07:34:53;102092.22;;;10.36;100.00
19128;BME280;9696;53.686;10.094;2023-05-07T07:37:22;102091.94;;;10.12;100.00
19128;BME280;9696;53.686;10.094;2023-05-07T07:39:54;102088.31;;;10.29;100.00
19128;BME280;9696;53.686;10.094;2023-05-07T07:42:23;102092.34;;;10.20;100.00
19128;BME280;9696;53.686;10.094;2023-05-07T07:44:53;102093.59;;;10.15;100.00
19128;BME280;9696;53.686;10.094;2023-05-07T07:47:24;102092.47;;;10.19;100.00
19128;BME280;9696;53.686;10.094;2023-05-07T07:49:55;102089.81;;;10.05;100.00
19128;BME280;9696;53.686;10.094;2023-05-07T07:52:24;102103.19;;;10.00;100.00
19128;BME280;9696;53.686;10.094;2023-05-07T07:54:53;102102.22;;;10.44;100.00
19128;BME280;9696;53.686;10.094;2023-05-07T07:57:23;102108.63;;;10.25;100.00
19128;BME280;9696;53.686;10.094;2023-05-07T07:59:52;102111.28;;;10.11;100.00
19128;BME280;9696;53.686;10.094;2023-05-07T08:02:22;102113.97;;;10.38;100.00
19128;BME280;9696;53.686;10.094;2023-05-07T08:04:51;102111.88;;;10.43;100.00
19128;BME280;9696;53.686;10.094;2023-05-07T08:07:22;102119.69;;;10.16;100.00
19128;BME280;9696;53.686;10.094;2023-05-07T08:09:51;102115.22;;;10.18;100.00
19128;BME280;9696;53.686;10.094;2023-05-07T08:12:23;102112.56;;;10.59;100.00
19128;BME280;9696;53.686;10.094;2023-05-07T08:14:52;102119.28;;;10.36;100.00
19128;BME280;9696;53.686;10.094;2023-05-07T08:17:22;102122.69;;;10.38;100.00
19128;BME280;9696;53.686;10.094;2023-05-07T08:19:51;102119.06;;;10.54;100.00
19128;BME280;9696;53.686;10.094;2023-05-07T08:22:22;102122.75;;;10.78;100.00
19128;BME280;9696;53.686;10.094;2023-05-07T08:24:51;102111.88;;;10.97;100.00
19128;BME280;9696;53.686;10.094;2023-05-07T08:27:21;102119.41;;;10.88;100.00
19128;BME280;9696;53.686;10.094;2023-05-07T08:29:51;102119.34;;;10.76;100.00
19128;BME280;9696;53.686;10.094;2023-05-07T08:32:21;102117.25;;;11.08;100.00
19128;BME280;9696;53.686;10.094;2023-05-07T08:34:51;102107.97;;;11.02;100.00
19128;BME280;9696;53.686;10.094;2023-05-07T08:37:21;102119.19;;;10.92;100.00
19128;BME280;9696;53.686;10.094;2023-05-07T08:39:51;102124.97;;;10.57;100.00
19128;BME280;9696;53.686;10.094;2023-05-07T08:42:23;102116.53;;;11.06;100.00
19128;BME280;9696;53.686;10.094;2023-05-07T08:44:57;102126.44;;;10.61;100.00
19128;BME280;9696;53.686;10.094;2023-05-07T08:47:34;102129.44;;;10.55;100.00
19128;BME280;9696;53.686;10.094;2023-05-07T08:50:06;102132.63;;;10.60;100.00
19128;BME280;9696;53.686;10.094;2023-05-07T08:52:37;102135.44;;;10.57;100.00
19128;BME280;9696;53.686;10.094;2023-05-07T08:55:09;102136.69;;;10.78;100.00
19128;BME280;9696;53.686;10.094;2023-05-07T08:57:39;102142.75;;;10.66;100.00
19128;BME280;9696;53.686;10.094;2023-05-07T09:00:11;102140.88;;;11.08;100.00
19128;BME280;9696;53.686;10.094;2023-05-07T09:02:42;102150.44;;;10.55;100.00
19128;BME280;9696;53.686;10.094;2023-05-07T09:05:11;102142.13;;;10.75;100.00
19128;BME280;9696;53.686;10.094;2023-05-07T09:07:42;102150.25;;;10.58;100.00
19128;BME280;9696;53.686;10.094;2023-05-07T09:10:14;102150.66;;;10.79;100.00
19128;BME280;9696;53.686;10.094;2023-05-07T09:12:47;102143.63;;;10.79;100.00
19128;BME280;9696;53.686;10.094;2023-05-07T09:15:18;102151.78;;;10.75;100.00
19128;BME280;9696;53.686;10.094;2023-05-07T09:17:47;102150.41;;;10.96;100.00
19128;BME280;9696;53.686;10.094;2023-05-07T09:20:17;102150.66;;;10.79;100.00
19128;BME280;9696;53.686;10.094;2023-05-07T09:22:49;102149.00;;;10.91;100.00
19128;BME280;9696;53.686;10.094;2023-05-07T09:25:28;102154.88;;;10.81;100.00
19128;BME280;9696;53.686;10.094;2023-05-07T09:28:00;102152.91;;;11.24;100.00
19128;BME280;9696;53.686;10.094;2023-05-07T09:30:30;102160.50;;;11.42;100.00
19128;BME280;9696;53.686;10.094;2023-05-07T09:33:02;102163.38;;;11.12;100.00
19128;BME280;9696;53.686;10.094;2023-05-07T09:35:34;102161.09;;;11.20;100.00
19128;BME280;9696;53.686;10.094;2023-05-07T09:38:10;102150.25;;;11.12;100.00
19128;BME280;9696;53.686;10.094;2023-05-07T09:40:39;102148.16;;;11.17;100.00
19128;BME280;9696;53.686;10.094;2023-05-07T09:43:14;102160.44;;;11.16;100.00
19128;BME280;9696;53.686;10.094;2023-05-07T09:45:50;102159.66;;;11.41;100.00
19128;BME280;9696;53.686;10.094;2023-05-07T09:48:22;102156.16;;;11.28;100.00
19128;BME280;9696;53.686;10.094;2023-05-07T09:50:56;102154.00;;;11.60;100.00
19128;BME280;9696;53.686;10.094;2023-05-07T09:53:32;102162.72;;;11.60;100.00
19128;BME280;9696;53.686;10.094;2023-05-07T09:56:04;102150.63;;;11.45;100.00
19128;BME280;9696;53.686;10.094;2023-05-07T09:58:37;102162.97;;;11.95;100.00
19128;BME280;9696;53.686;10.094;2023-05-07T10:01:10;102158.19;;;11.50;100.00
19128;BME280;9696;53.686;10.094;2023-05-07T10:03:42;102158.34;;;11.86;100.00
19128;BME280;9696;53.686;10.094;2023-05-07T10:06:12;102161.72;;;11.75;100.00
19128;BME280;9696;53.686;10.094;2023-05-07T10:08:43;102160.22;;;12.58;100.00
19128;BME280;9696;53.686;10.094;2023-05-07T10:11:13;102161.47;;;11.53;100.00
19128;BME280;9696;53.686;10.094;2023-05-07T10:13:44;102159.03;;;11.63;100.00
19128;BME280;9696;53.686;10.094;2023-05-07T10:16:13;102158.56;;;12.08;100.00
19128;BME280;9696;53.686;10.094;2023-05-07T10:18:47;102157.72;;;11.95;100.00
19128;BME280;9696;53.686;10.094;2023-05-07T10:21:21;102151.03;;;12.64;100.00
19128;BME280;9696;53.686;10.094;2023-05-07T10:23:59;102156.16;;;11.93;100.00
19128;BME280;9696;53.686;10.094;2023-05-07T10:26:33;102156.63;;;12.59;100.00
19128;BME280;9696;53.686;10.094;2023-05-07T10:29:07;102158.13;;;12.02;100.00
19128;BME280;9696;53.686;10.094;2023-05-07T10:31:51;102162.31;;;12.90;100.00
19128;BME280;9696;53.686;10.094;2023-05-07T10:34:24;102159.34;;;12.34;100.00
19128;BME280;9696;53.686;10.094;2023-05-07T10:36:56;102158.81;;;12.65;100.00
19128;BME280;9696;53.686;10.094;2023-05-07T10:39:27;102157.78;;;12.19;100.00
19128;BME280;9696;53.686;10.094;2023-05-07T10:42:03;102160.78;;;12.51;100.00
19128;BME280;9696;53.686;10.094;2023-05-07T10:44:36;102154.22;;;12.56;100.00
19128;BME280;9696;53.686;10.094;2023-05-07T10:47:11;102143.88;;;12.90;100.00
19128;BME280;9696;53.686;10.094;2023-05-07T10:50:20;102152.59;;;12.66;100.00
19128;BME280;9696;53.686;10.094;2023-05-07T10:53:22;102141.50;;;12.74;100.00
19128;BME280;9696;53.686;10.094;2023-05-07T10:56:26;102149.75;;;12.69;100.00
19128;BME280;9696;53.686;10.094;2023-05-07T10:59:33;102144.06;;;12.39;100.00
19128;BME280;9696;53.686;10.094;2023-05-07T11:02:22;102141.34;;;12.88;100.00
19128;BME280;9696;53.686;10.094;2023-05-07T11:05:20;102133.13;;;13.28;100.00
19128;BME280;9696;53.686;10.094;2023-05-07T11:07:57;102144.22;;;12.49;100.00
19128;BME280;9696;53.686;10.094;2023-05-07T11:10:50;102141.84;;;12.33;100.00
19128;BME280;9696;53.686;10.094;2023-05-07T11:13:43;102146.56;;;12.77;100.00
19128;BME280;9696;53.686;10.094;2023-05-07T11:16:36;102135.06;;;13.26;100.00
19128;BME280;9696;53.686;10.094;2023-05-07T11:19:49;102143.81;;;13.02;100.00
19128;BME280;9696;53.686;10.094;2023-05-07T11:22:37;102132.91;;;13.31;100.00
19128;BME280;9696;53.686;10.094;2023-05-07T11:25:21;102146.88;;;13.20;100.00
19128;BME280;9696;53.686;10.094;2023-05-07T11:28:03;102140.97;;;13.51;100.00
19128;BME280;9696;53.686;10.094;2023-05-07T11:30:34;102138.50;;;13.61;100.00
19128;BME280;9696;53.686;10.094;2023-05-07T11:33:06;102128.19;;;13.69;100.00
19128;BME280;9696;53.686;10.094;2023-05-07T11:35:35;102138.91;;;13.33;100.00
19128;BME280;9696;53.686;10.094;2023-05-07T11:38:08;102137.78;;;13.70;100.00
19128;BME280;9696;53.686;10.094;2023-05-07T11:40:49;102139.47;;;13.82;100.00
19128;BME280;9696;53.686;10.094;2023-05-07T11:43:18;102133.53;;;13.34;100.00
19128;BME280;9696;53.686;10.094;2023-05-07T11:45:49;102126.25;;;14.27;100.00
19128;BME280;9696;53.686;10.094;2023-05-07T11:48:20;102128.41;;;14.10;100.00
19128;BME280;9696;53.686;10.094;2023-05-07T11:50:53;102116.56;;;15.02;100.00
19128;BME280;9696;53.686;10.094;2023-05-07T11:53:25;102113.78;;;14.83;100.00
19128;BME280;9696;53.686;10.094;2023-05-07T11:55:55;102112.09;;;14.82;100.00
19128;BME280;9696;53.686;10.094;2023-05-07T11:58:25;102102.03;;;15.28;100.00
19128;BME280;9696;53.686;10.094;2023-05-07T12:00:56;102112.25;;;14.37;100.00
19128;BME280;9696;53.686;10.094;2023-05-07T12:03:25;102107.88;;;14.47;100.00
19128;BME280;9696;53.686;10.094;2023-05-07T12:05:59;102107.31;;;14.10;100.00
19128;BME280;9696;53.686;10.094;2023-05-07T12:08:28;102109.97;;;13.99;100.00
19128;BME280;9696;53.686;10.094;2023-05-07T12:10:57;102108.78;;;13.92;100.00
19128;BME280;9696;53.686;10.094;2023-05-07T12:13:27;102105.78;;;14.62;100.00
19128;BME280;9696;53.686;10.094;2023-05-07T12:15:57;102101.44;;;15.04;100.00
19128;BME280;9696;53.686;10.094;2023-05-07T12:18:27;102104.28;;;15.12;100.00
19128;BME280;9696;53.686;10.094;2023-05-07T12:20:56;102107.97;;;15.21;100.00
19128;BME280;9696;53.686;10.094;2023-05-07T12:23:26;102107.88;;;16.03;100.00
19128;BME280;9696;53.686;10.094;2023-05-07T12:25:55;102102.41;;;15.44;100.00
19128;BME280;9696;53.686;10.094;2023-05-07T12:28:25;102110.34;;;15.24;100.00
19128;BME280;9696;53.686;10.094;2023-05-07T12:30:54;102111.50;;;14.35;100.00
19128;BME280;9696;53.686;10.094;2023-05-07T12:33:26;102103.19;;;15.56;100.00
19128;BME280;9696;53.686;10.094;2023-05-07T12:35:56;102104.75;;;15.59;100.00
19128;BME280;9696;53.686;10.094;2023-05-07T12:38:25;102109.72;;;15.82;100.00
19128;BME280;9696;53.686;10.094;2023-05-07T12:40:55;102106.94;;;15.53;100.00
19128;BME280;9696;53.686;10.094;2023-05-07T12:43:26;102108.78;;;15.21;100.00
19128;BME280;9696;53.686;10.094;2023-05-07T12:45:56;102114.19;;;14.99;100.00
19128;BME280;9696;53.686;10.094;2023-05-07T12:48:27;102110.84;;;15.38;100.00
19128;BME280;9696;53.686;10.094;2023-05-07T12:50:57;102114.19;;;14.67;100.00
19128;BME280;9696;53.686;10.094;2023-05-07T12:53:27;102105.94;;;15.34;100.00
19128;BME280;9696;53.686;10.094;2023-05-07T12:55:58;102107.75;;;15.33;100.00
19128;BME280;9696;53.686;10.094;2023-05-07T12:58:28;102098.91;;;15.95;100.00
19128;BME280;9696;53.686;10.094;2023-05-07T13:00:59;102095.22;;;16.17;100.00
19128;BME280;9696;53.686;10.094;2023-05-07T13:03:32;102104.75;;;16.48;100.00
19128;BME280;9696;53.686;10.094;2023-05-07T13:06:04;102106.13;;;15.93;100.00
19128;BME280;9696;53.686;10.094;2023-05-07T13:08:35;102104.94;;;15.76;100.00